Burns Township, MN

11:03 PM CST on February 07, 2016 (GMT -0600)
Princeton Municipal | | Change Station
CLOSE
Current Station
Airport
Location: Princeton,
Elevation: 978 ft
Nearby Weather Stations
Active Advisory: Winter Weather Advisory Active Notice: Public Information Statement

Elev 978 ft 45.56 °N, 93.61 °W | Updated 8 minutes ago

Overcast
Overcast
16 °F
Feels Like -1 °F
N
18
Wind Variable Wind from NW
Gusts 25 mph

Today
High -- | Low -- °F
--% Chance of Precip.
Yesterday
High -- | Low -- °F
Precip. -- in
Pressure 29.77 in
Visibility 10.0 miles
Clouds Mostly Cloudy 2600 ft
Overcast 3300 ft
Windchill -1 °F
Dew Point 9 °F
Humidity 73%
Rainfall 0.02 in
Snow Depth Not available.
7:27 AM 5:29 PM
Waning Crescent, 0% visible
METAR KPNM 080455Z AUTO 31016G22KT 10SM BKN026 OVC033 M09/M13 A2977 RMK AO2
Pressure 29.77 in
Visibility 10.0 miles
Clouds Mostly Cloudy 2600 ft
Overcast 3300 ft
Windchill -1 °F
Dew Point 9 °F
Humidity 73%
Rainfall 0.02 in
Snow Depth Not available.
7:27 AM 5:29 PM
Waning Crescent, 0% visible
METAR KPNM 080455Z AUTO 31016G22KT 10SM BKN026 OVC033 M09/M13 A2977 RMK AO2

10-Day Weather Forecast

Almanac

Astronomy

Feb. 07, 2016 Rise Set
Actual Time
Civil Twilight
Nautical Twilight
Astronomical Twilight
Moon
Length of Visible Light
Length of Day
Tomorrow will be .
, % of the Moon is Illuminated

Today's Extremes

State Highs State Lows

Community

WunderPhotos

Upload Photos

1,891,382 photos uploaded!

WunderBlog® & News

Nearby

Air Quality

  Air Quality AQ Index Pollutant
Not available.

Snow Depth

Station Depth Elevation

Earthquake Activity

City Distance Mag. Time & Date
Minimum magnitude displayed is 2.5.

Coastal Water Temperatures

Place Temperature

Stations

Nearby Weather Stations

Station Location Temp. Windchill Dew Point Humidity Wind Precip. Elev Updated Type
                   

Watches & Warnings

Winter Weather Advisory
Issued: 8:21 PM CST Feb. 7, 2016 – National Weather Service

... Winter Weather Advisory remains in effect until noon CST
Monday...

* expect occasional light snow through Monday morning.

* Total snow accumulations of up to 1 inch are expected.

* Winds gusting as high as 40 mph will cause widespread blowing
and drifting snow.

* Plan on slippery Road conditions.

Precautionary/preparedness actions...

A Winter Weather Advisory for snow means periods of snow will
cause primarily travel difficulties. Be prepared for snow covered
roads and limited visibilities... and use caution while driving.
The latest Road conditions for the state you are calling from can
be obtained by calling 5 1 1.